Coldwater, Canada
Current Conditions -  °F | °C
As of 5:35 AM on Sunday 26 Oct 2014 (Local Time) from CYQA Reporting Station
Overcast Overcast  
Wind Chill: 40°   Ceiling: 2700
Heat Index: 45°   Visibility: 9mi
Dew Point: 39°   Wind: 9mph
Humidity: 81%   Direction: 300°WNW
Pressure: 29.59"   Gusts: NA
Location:  44.71°N, 79.64°W
Report Text: CYQA 260935Z AUTO 30008KT 9SM SCT022 BKN027 OVC090 07/04 A2959 RMK SLP024
Loading
Personal Weather Stations






























Interactive Weather Map
Tropical Storm Tracking
New forecast layout! Learn more

10-Day Weather Forecast

Advertisements
Track Severe Weather on mobile